sensor_id;sensor_type;location;lat;lon;timestamp;pressure;altitude;pressure_sealevel;temperature;humidity
46291;BME280;32023;44.444;26.006;2023-03-18T00:04:32;101155.56;;;7.18;30.97
46291;BME280;32023;44.444;26.006;2023-03-18T00:07:06;101164.03;;;7.16;31.27
46291;BME280;32023;44.444;26.006;2023-03-18T00:09:59;101156.84;;;7.15;31.70
46291;BME280;32023;44.444;26.006;2023-03-18T00:12:27;101154.75;;;7.11;31.95
46291;BME280;32023;44.444;26.006;2023-03-18T00:14:54;101157.94;;;7.08;31.75
46291;BME280;32023;44.444;26.006;2023-03-18T00:17:20;101159.19;;;7.12;31.94
46291;BME280;32023;44.444;26.006;2023-03-18T00:19:47;101150.97;;;7.12;32.08
46291;BME280;32023;44.444;26.006;2023-03-18T00:22:15;101149.13;;;7.06;31.48
46291;BME280;32023;44.444;26.006;2023-03-18T00:27:11;101141.97;;;7.05;31.59
46291;BME280;32023;44.444;26.006;2023-03-18T00:29:37;101134.59;;;7.05;31.53
46291;BME280;32023;44.444;26.006;2023-03-18T00:32:06;101134.19;;;7.02;31.07
46291;BME280;32023;44.444;26.006;2023-03-18T00:34:36;101128.25;;;7.05;31.42
46291;BME280;32023;44.444;26.006;2023-03-18T00:37:02;101131.00;;;7.05;31.77
46291;BME280;32023;44.444;26.006;2023-03-18T00:39:31;101134.19;;;7.02;31.16
46291;BME280;32023;44.444;26.006;2023-03-18T00:41:57;101127.06;;;6.94;31.22
46291;BME280;32023;44.444;26.006;2023-03-18T00:44:32;101131.88;;;6.92;31.98
46291;BME280;32023;44.444;26.006;2023-03-18T00:47:01;101126.22;;;6.94;31.55
46291;BME280;32023;44.444;26.006;2023-03-18T00:49:38;101122.41;;;6.95;31.84
46291;BME280;32023;44.444;26.006;2023-03-18T00:52:13;101120.34;;;6.90;32.13
46291;BME280;32023;44.444;26.006;2023-03-18T00:54:44;101119.94;;;6.87;32.22
46291;BME280;32023;44.444;26.006;2023-03-18T00:57:10;101122.88;;;6.85;32.50
46291;BME280;32023;44.444;26.006;2023-03-18T00:59:36;101123.31;;;6.82;32.40
46291;BME280;32023;44.444;26.006;2023-03-18T01:02:02;101115.31;;;6.81;32.01
46291;BME280;32023;44.444;26.006;2023-03-18T01:04:29;101123.50;;;6.81;32.26
46291;BME280;32023;44.444;26.006;2023-03-18T01:07:06;101108.16;;;6.80;32.42
46291;BME280;32023;44.444;26.006;2023-03-18T01:09:32;101111.50;;;6.82;32.16
46291;BME280;32023;44.444;26.006;2023-03-18T01:12:01;101113.19;;;6.83;32.37
46291;BME280;32023;44.444;26.006;2023-03-18T01:14:28;101121.19;;;6.84;32.66
46291;BME280;32023;44.444;26.006;2023-03-18T01:16:54;101121.59;;;6.88;32.34
46291;BME280;32023;44.444;26.006;2023-03-18T01:19:25;101106.84;;;6.89;32.50
46291;BME280;32023;44.444;26.006;2023-03-18T01:21:52;101111.47;;;6.88;32.36
46291;BME280;32023;44.444;26.006;2023-03-18T01:24:18;101115.72;;;6.84;31.63
46291;BME280;32023;44.444;26.006;2023-03-18T01:26:44;101113.59;;;6.86;31.94
46291;BME280;32023;44.444;26.006;2023-03-18T01:29:13;101112.75;;;6.86;31.73
46291;BME280;32023;44.444;26.006;2023-03-18T01:34:28;101111.50;;;6.82;31.73
46291;BME280;32023;44.444;26.006;2023-03-18T01:37:04;101108.56;;;6.76;31.69
46291;BME280;32023;44.444;26.006;2023-03-18T01:39:30;101106.88;;;6.82;32.21
46291;BME280;32023;44.444;26.006;2023-03-18T01:42:00;101108.56;;;6.83;32.35
46291;BME280;32023;44.444;26.006;2023-03-18T01:44:26;101111.50;;;6.82;32.46
46291;BME280;32023;44.444;26.006;2023-03-18T01:46:52;101109.38;;;6.84;32.23
46291;BME280;32023;44.444;26.006;2023-03-18T01:55:18;101118.69;;;6.76;32.26
46291;BME280;32023;44.444;26.006;2023-03-18T01:57:45;101114.06;;;6.76;32.43
46291;BME280;32023;44.444;26.006;2023-03-18T02:00:21;101107.31;;;6.79;32.71
46291;BME280;32023;44.444;26.006;2023-03-18T02:02:48;101115.94;;;6.76;32.63
46291;BME280;32023;44.444;26.006;2023-03-18T02:05:16;101116.19;;;6.74;32.61
46291;BME280;32023;44.444;26.006;2023-03-18T02:10:39;101118.06;;;6.74;32.51
46291;BME280;32023;44.444;26.006;2023-03-18T02:18:42;101126.69;;;6.77;32.67
46291;BME280;32023;44.444;26.006;2023-03-18T02:26:27;101125.81;;;6.84;33.04
46291;BME280;32023;44.444;26.006;2023-03-18T02:28:55;101122.03;;;6.85;33.08
46291;BME280;32023;44.444;26.006;2023-03-18T02:31:25;101120.78;;;6.87;33.47
46291;BME280;32023;44.444;26.006;2023-03-18T02:34:00;101117.59;;;6.84;33.66
46291;BME280;32023;44.444;26.006;2023-03-18T02:36:28;101134.03;;;6.84;33.05
46291;BME280;32023;44.444;26.006;2023-03-18T02:38:56;101136.56;;;6.85;33.67
46291;BME280;32023;44.444;26.006;2023-03-18T02:41:31;101140.56;;;6.83;34.20
46291;BME280;32023;44.444;26.006;2023-03-18T02:44:03;101137.59;;;6.84;34.67
46291;BME280;32023;44.444;26.006;2023-03-18T02:49:23;101143.97;;;6.78;34.91
46291;BME280;32023;44.444;26.006;2023-03-18T02:52:02;101139.31;;;6.78;35.19
46291;BME280;32023;44.444;26.006;2023-03-18T02:57:09;101137.03;;;6.75;36.56
46291;BME280;32023;44.444;26.006;2023-03-18T02:59:44;101136.38;;;6.73;36.93
46291;BME280;32023;44.444;26.006;2023-03-18T03:02:13;101136.81;;;6.70;37.75
46291;BME280;32023;44.444;26.006;2023-03-18T03:04:40;101136.41;;;6.67;37.50
46291;BME280;32023;44.444;26.006;2023-03-18T03:07:06;101139.34;;;6.65;37.92
46291;BME280;32023;44.444;26.006;2023-03-18T03:09:40;101130.53;;;6.63;38.18
46291;BME280;32023;44.444;26.006;2023-03-18T03:12:10;101135.19;;;6.56;38.62
46291;BME280;32023;44.444;26.006;2023-03-18T03:14:36;101138.13;;;6.55;38.88
46291;BME280;32023;44.444;26.006;2023-03-18T03:17:05;101141.50;;;6.57;38.97
46291;BME280;32023;44.444;26.006;2023-03-18T03:19:34;101141.09;;;6.53;39.18
46291;BME280;32023;44.444;26.006;2023-03-18T03:22:03;101136.84;;;6.57;38.83
46291;BME280;32023;44.444;26.006;2023-03-18T03:24:30;101151.41;;;6.51;40.13
46291;BME280;32023;44.444;26.006;2023-03-18T03:26:56;101149.94;;;6.49;39.26
46291;BME280;32023;44.444;26.006;2023-03-18T03:29:23;101156.66;;;6.46;40.71
46291;BME280;32023;44.444;26.006;2023-03-18T03:31:52;101150.56;;;6.51;40.81
46291;BME280;32023;44.444;26.006;2023-03-18T03:34:18;101150.53;;;6.57;41.38
46291;BME280;32023;44.444;26.006;2023-03-18T03:36:45;101140.63;;;6.63;41.13
46291;BME280;32023;44.444;26.006;2023-03-18T03:39:14;101143.59;;;6.68;40.67
46291;BME280;32023;44.444;26.006;2023-03-18T03:41:43;101140.41;;;6.71;39.62
46291;BME280;32023;44.444;26.006;2023-03-18T03:44:09;101140.16;;;6.72;38.71
46291;BME280;32023;44.444;26.006;2023-03-18T03:46:36;101146.09;;;6.69;38.10
46291;BME280;32023;44.444;26.006;2023-03-18T03:49:11;101138.50;;;6.65;38.50
46291;BME280;32023;44.444;26.006;2023-03-18T03:51:39;101138.53;;;6.58;39.47
46291;BME280;32023;44.444;26.006;2023-03-18T03:54:10;101147.63;;;6.52;39.56
46291;BME280;32023;44.444;26.006;2023-03-18T03:56:36;101142.78;;;6.48;40.08
46291;BME280;32023;44.444;26.006;2023-03-18T03:59:02;101145.31;;;6.49;40.01
46291;BME280;32023;44.444;26.006;2023-03-18T04:01:29;101140.47;;;6.51;39.19
46291;BME280;32023;44.444;26.006;2023-03-18T04:03:56;101138.56;;;6.52;39.35
46291;BME280;32023;44.444;26.006;2023-03-18T04:06:27;101137.72;;;6.51;38.87
46291;BME280;32023;44.444;26.006;2023-03-18T04:08:56;101141.09;;;6.53;39.57
46291;BME280;32023;44.444;26.006;2023-03-18T04:11:22;101151.59;;;6.56;39.44
46291;BME280;32023;44.444;26.006;2023-03-18T04:13:49;101144.66;;;6.60;39.92
46291;BME280;32023;44.444;26.006;2023-03-18T04:16:15;101145.69;;;6.59;39.96
46291;BME280;32023;44.444;26.006;2023-03-18T04:18:43;101141.47;;;6.63;39.46
46291;BME280;32023;44.444;26.006;2023-03-18T04:21:12;101148.66;;;6.64;39.12
46291;BME280;32023;44.444;26.006;2023-03-18T04:26:48;101146.09;;;6.69;39.18
46291;BME280;32023;44.444;26.006;2023-03-18T04:29:37;101148.81;;;6.69;38.32
46291;BME280;32023;44.444;26.006;2023-03-18T04:32:05;101143.13;;;6.71;38.33
46291;BME280;32023;44.444;26.006;2023-03-18T04:34:38;101149.47;;;6.71;38.09
46291;BME280;32023;44.444;26.006;2023-03-18T04:37:07;101146.50;;;6.73;38.18
46291;BME280;32023;44.444;26.006;2023-03-18T04:42:18;101151.53;;;6.83;37.86
46291;BME280;32023;44.444;26.006;2023-03-18T04:45:03;101152.34;;;6.90;37.92
46291;BME280;32023;44.444;26.006;2023-03-18T04:47:32;101152.31;;;6.96;37.77
46291;BME280;32023;44.444;26.006;2023-03-18T04:55:52;101154.75;;;7.17;37.95
46291;BME280;32023;44.444;26.006;2023-03-18T04:58:18;101150.94;;;7.25;38.00
46291;BME280;32023;44.444;26.006;2023-03-18T05:00:48;101152.78;;;7.31;37.43
46291;BME280;32023;44.444;26.006;2023-03-18T05:03:14;101158.22;;;7.38;37.37
46291;BME280;32023;44.444;26.006;2023-03-18T05:05:44;101157.09;;;7.45;37.56
46291;BME280;32023;44.444;26.006;2023-03-18T05:08:10;101149.94;;;7.51;37.46
46291;BME280;32023;44.444;26.006;2023-03-18T05:10:37;101156.19;;;7.58;37.05
46291;BME280;32023;44.444;26.006;2023-03-18T05:13:05;101156.34;;;7.63;36.91
46291;BME280;32023;44.444;26.006;2023-03-18T05:15:36;101150.00;;;7.69;36.57
46291;BME280;32023;44.444;26.006;2023-03-18T05:18:02;101155.44;;;7.75;36.15
46291;BME280;32023;44.444;26.006;2023-03-18T05:20:32;101156.66;;;7.80;35.86
46291;BME280;32023;44.444;26.006;2023-03-18T05:22:58;101151.38;;;7.85;35.75
46291;BME280;32023;44.444;26.006;2023-03-18T05:25:25;101153.44;;;7.89;35.42
46291;BME280;32023;44.444;26.006;2023-03-18T05:27:54;101151.25;;;7.98;35.48
46291;BME280;32023;44.444;26.006;2023-03-18T05:30:24;101150.97;;;8.06;35.67
46291;BME280;32023;44.444;26.006;2023-03-18T05:32:51;101149.66;;;8.15;35.38
46291;BME280;32023;44.444;26.006;2023-03-18T05:35:26;101147.81;;;8.27;35.85
46291;BME280;32023;44.444;26.006;2023-03-18T05:40:52;101152.47;;;8.51;37.17
46291;BME280;32023;44.444;26.006;2023-03-18T05:43:21;101154.53;;;8.56;37.06
46291;BME280;32023;44.444;26.006;2023-03-18T05:46:01;101153.78;;;8.49;36.70
46291;BME280;32023;44.444;26.006;2023-03-18T05:51:38;101161.94;;;8.55;37.19
46291;BME280;32023;44.444;26.006;2023-03-18T05:54:04;101161.19;;;8.66;36.72
46291;BME280;32023;44.444;26.006;2023-03-18T05:56:39;101160.88;;;8.75;36.92
46291;BME280;32023;44.444;26.006;2023-03-18T05:59:08;101163.53;;;8.81;36.74
46291;BME280;32023;44.444;26.006;2023-03-18T06:01:42;101163.47;;;8.88;36.29
46291;BME280;32023;44.444;26.006;2023-03-18T06:04:13;101161.63;;;9.00;35.68
46291;BME280;32023;44.444;26.006;2023-03-18T06:06:45;101159.34;;;9.15;35.11
46291;BME280;32023;44.444;26.006;2023-03-18T06:09:14;101163.13;;;9.32;34.51
46291;BME280;32023;44.444;26.006;2023-03-18T06:11:43;101150.41;;;9.49;33.61
46291;BME280;32023;44.444;26.006;2023-03-18T06:14:18;101155.84;;;9.67;33.37
46291;BME280;32023;44.444;26.006;2023-03-18T06:19:47;101161.19;;;9.92;31.99
46291;BME280;32023;44.444;26.006;2023-03-18T06:22:16;101157.97;;;9.95;31.53
46291;BME280;32023;44.444;26.006;2023-03-18T06:24:42;101165.63;;;10.05;31.91
46291;BME280;32023;44.444;26.006;2023-03-18T06:27:09;101165.75;;;10.10;32.04
46291;BME280;32023;44.444;26.006;2023-03-18T06:29:35;101163.06;;;10.22;32.58
46291;BME280;32023;44.444;26.006;2023-03-18T06:32:02;101173.09;;;10.39;32.34
46291;BME280;32023;44.444;26.006;2023-03-18T06:34:28;101166.03;;;10.55;31.82
46291;BME280;32023;44.444;26.006;2023-03-18T06:36:55;101172.03;;;10.75;32.48
46291;BME280;32023;44.444;26.006;2023-03-18T06:39:21;101171.91;;;10.82;32.41
46291;BME280;32023;44.444;26.006;2023-03-18T06:41:48;101176.66;;;10.98;32.76
46291;BME280;32023;44.444;26.006;2023-03-18T06:44:17;101180.81;;;11.12;31.88
46291;BME280;32023;44.444;26.006;2023-03-18T06:46:46;101178.72;;;11.31;31.53
46291;BME280;32023;44.444;26.006;2023-03-18T06:49:12;101180.25;;;11.38;30.71
46291;BME280;32023;44.444;26.006;2023-03-18T06:51:40;101188.31;;;11.40;30.30
46291;BME280;32023;44.444;26.006;2023-03-18T06:54:09;101175.38;;;11.40;29.90
46291;BME280;32023;44.444;26.006;2023-03-18T06:56:36;101186.84;;;11.37;30.74
46291;BME280;32023;44.444;26.006;2023-03-18T06:59:04;101172.09;;;11.43;30.72
46291;BME280;32023;44.444;26.006;2023-03-18T07:01:44;101178.31;;;11.50;30.78
46291;BME280;32023;44.444;26.006;2023-03-18T07:04:10;101171.41;;;11.65;30.42
46291;BME280;32023;44.444;26.006;2023-03-18T07:06:36;101177.19;;;11.91;30.77
46291;BME280;32023;44.444;26.006;2023-03-18T07:09:02;101181.31;;;12.22;30.46
46291;BME280;32023;44.444;26.006;2023-03-18T07:11:34;101175.63;;;12.45;29.14
46291;BME280;32023;44.444;26.006;2023-03-18T07:14:00;101182.47;;;12.60;28.46
46291;BME280;32023;44.444;26.006;2023-03-18T07:16:27;101197.06;;;12.77;27.67
46291;BME280;32023;44.444;26.006;2023-03-18T07:19:03;101179.91;;;12.91;27.35
46291;BME280;32023;44.444;26.006;2023-03-18T07:21:50;101186.03;;;13.15;27.24
46291;BME280;32023;44.444;26.006;2023-03-18T07:24:29;101193.25;;;13.38;27.02
46291;BME280;32023;44.444;26.006;2023-03-18T07:29:35;101188.38;;;13.72;27.22
46291;BME280;32023;44.444;26.006;2023-03-18T07:32:01;101192.44;;;13.91;26.84
46291;BME280;32023;44.444;26.006;2023-03-18T07:34:28;101191.75;;;14.06;26.04
46291;BME280;32023;44.444;26.006;2023-03-18T07:36:55;101193.88;;;14.25;26.05
46291;BME280;32023;44.444;26.006;2023-03-18T07:39:24;101188.25;;;14.42;26.22
46291;BME280;32023;44.444;26.006;2023-03-18T07:41:53;101186.44;;;14.63;25.93
46291;BME280;32023;44.444;26.006;2023-03-18T07:44:24;101182.53;;;14.54;25.48
46291;BME280;32023;44.444;26.006;2023-03-18T07:46:50;101188.56;;;14.45;25.25
46291;BME280;32023;44.444;26.006;2023-03-18T07:49:21;101189.91;;;14.43;25.42
46291;BME280;32023;44.444;26.006;2023-03-18T07:51:49;101195.00;;;14.56;25.19
46291;BME280;32023;44.444;26.006;2023-03-18T07:54:16;101197.03;;;14.71;24.75
46291;BME280;32023;44.444;26.006;2023-03-18T07:56:42;101195.56;;;14.95;24.41
46291;BME280;32023;44.444;26.006;2023-03-18T07:59:09;101198.72;;;15.19;24.55
46291;BME280;32023;44.444;26.006;2023-03-18T08:01:35;101200.22;;;15.47;24.33
46291;BME280;32023;44.444;26.006;2023-03-18T08:04:02;101203.13;;;15.77;23.74
46291;BME280;32023;44.444;26.006;2023-03-18T08:06:29;101204.81;;;15.78;23.22
46291;BME280;32023;44.444;26.006;2023-03-18T08:08:55;101203.16;;;15.82;23.89
46291;BME280;32023;44.444;26.006;2023-03-18T08:11:21;101204.03;;;16.03;24.09
46291;BME280;32023;44.444;26.006;2023-03-18T08:13:47;101202.66;;;16.20;23.47
46291;BME280;32023;44.444;26.006;2023-03-18T08:16:14;101197.69;;;16.43;23.43
46291;BME280;32023;44.444;26.006;2023-03-18T08:18:40;101193.78;;;16.54;24.12
46291;BME280;32023;44.444;26.006;2023-03-18T08:21:06;101199.34;;;16.74;23.20
46291;BME280;32023;44.444;26.006;2023-03-18T08:23:34;101197.66;;;16.88;23.51
46291;BME280;32023;44.444;26.006;2023-03-18T08:26:04;101197.59;;;17.03;23.11
46291;BME280;32023;44.444;26.006;2023-03-18T08:28:30;101202.00;;;17.29;22.47
46291;BME280;32023;44.444;26.006;2023-03-18T08:33:26;101197.97;;;17.66;21.89
46291;BME280;32023;44.444;26.006;2023-03-18T08:35:54;101199.47;;;17.92;21.82
46291;BME280;32023;44.444;26.006;2023-03-18T08:38:23;101206.56;;;18.13;21.61
46291;BME280;32023;44.444;26.006;2023-03-18T08:40:50;101207.03;;;18.25;21.24
46291;BME280;32023;44.444;26.006;2023-03-18T08:43:17;101201.06;;;18.03;21.16
46291;BME280;32023;44.444;26.006;2023-03-18T08:45:50;101203.84;;;18.08;21.58
46291;BME280;32023;44.444;26.006;2023-03-18T08:48:16;101204.25;;;18.25;21.19
46291;BME280;32023;44.444;26.006;2023-03-18T08:50:42;101202.53;;;18.35;21.00
46291;BME280;32023;44.444;26.006;2023-03-18T08:53:08;101204.34;;;18.49;20.95
46291;BME280;32023;44.444;26.006;2023-03-18T08:55:36;101195.03;;;18.64;20.88
46291;BME280;32023;44.444;26.006;2023-03-18T08:58:03;101192.53;;;18.91;20.74
46291;BME280;32023;44.444;26.006;2023-03-18T09:00:32;101188.75;;;19.30;20.41
46291;BME280;32023;44.444;26.006;2023-03-18T09:03:01;101191.19;;;19.60;19.68
46291;BME280;32023;44.444;26.006;2023-03-18T09:05:28;101186.84;;;19.49;19.93
46291;BME280;32023;44.444;26.006;2023-03-18T09:07:57;101184.44;;;19.42;19.63
46291;BME280;32023;44.444;26.006;2023-03-18T09:10:39;101182.50;;;19.38;19.19
46291;BME280;32023;44.444;26.006;2023-03-18T09:13:14;101187.00;;;19.34;19.55
46291;BME280;32023;44.444;26.006;2023-03-18T09:15:43;101185.25;;;19.43;19.14
46291;BME280;32023;44.444;26.006;2023-03-18T09:18:15;101183.47;;;19.52;19.22
46291;BME280;32023;44.444;26.006;2023-03-18T09:20:46;101179.66;;;19.85;19.28
46291;BME280;32023;44.444;26.006;2023-03-18T09:23:13;101178.50;;;20.24;19.22
46291;BME280;32023;44.444;26.006;2023-03-18T09:25:44;101183.00;;;20.57;18.96
46291;BME280;32023;44.444;26.006;2023-03-18T09:28:22;101186.59;;;20.76;18.80
46291;BME280;32023;44.444;26.006;2023-03-18T09:30:52;101173.78;;;21.02;18.42
46291;BME280;32023;44.444;26.006;2023-03-18T09:33:23;101180.13;;;21.22;18.33
46291;BME280;32023;44.444;26.006;2023-03-18T09:39:03;101182.66;;;21.86;18.32
46291;BME280;32023;44.444;26.006;2023-03-18T09:44:25;101174.34;;;22.31;17.63
46291;BME280;32023;44.444;26.006;2023-03-18T09:49:56;101178.06;;;22.04;17.65
46291;BME280;32023;44.444;26.006;2023-03-18T09:52:30;101178.25;;;22.07;17.85
46291;BME280;32023;44.444;26.006;2023-03-18T09:57:29;101167.16;;;23.00;16.75
46291;BME280;32023;44.444;26.006;2023-03-18T10:00:19;101168.41;;;23.56;16.15
46291;BME280;32023;44.444;26.006;2023-03-18T10:02:58;101167.34;;;24.34;15.63
46291;BME280;32023;44.444;26.006;2023-03-18T10:05:39;101158.75;;;25.11;14.78
46291;BME280;32023;44.444;26.006;2023-03-18T10:08:13;101162.16;;;26.05;13.97
46291;BME280;32023;44.444;26.006;2023-03-18T10:10:49;101152.41;;;27.01;13.56
46291;BME280;32023;44.444;26.006;2023-03-18T10:16:19;101153.53;;;29.86;11.68
46291;BME280;32023;44.444;26.006;2023-03-18T10:18:52;101157.03;;;31.18;10.89
46291;BME280;32023;44.444;26.006;2023-03-18T10:21:32;101150.03;;;32.46;9.98
46291;BME280;32023;44.444;26.006;2023-03-18T10:26:59;101136.28;;;34.74;8.50
46291;BME280;32023;44.444;26.006;2023-03-18T10:30:15;101141.13;;;34.63;8.58
46291;BME280;32023;44.444;26.006;2023-03-18T10:32:22;101135.88;;;34.86;8.38
46291;BME280;32023;44.444;26.006;2023-03-18T10:35:00;101144.13;;;35.37;8.18
46291;BME280;32023;44.444;26.006;2023-03-18T10:40:04;101128.81;;;36.29;7.53
46291;BME280;32023;44.444;26.006;2023-03-18T10:42:35;101133.47;;;36.81;7.61
46291;BME280;32023;44.444;26.006;2023-03-18T10:45:07;101130.09;;;37.45;7.06
46291;BME280;32023;44.444;26.006;2023-03-18T10:47:47;101124.56;;;37.68;6.64
46291;BME280;32023;44.444;26.006;2023-03-18T10:50:20;101122.66;;;37.95;6.91
46291;BME280;32023;44.444;26.006;2023-03-18T10:52:53;101120.63;;;38.23;6.26
46291;BME280;32023;44.444;26.006;2023-03-18T10:55:23;101107.56;;;37.81;6.80
46291;BME280;32023;44.444;26.006;2023-03-18T10:57:50;101102.34;;;37.72;6.85
46291;BME280;32023;44.444;26.006;2023-03-18T11:00:31;101105.16;;;37.35;6.90
46291;BME280;32023;44.444;26.006;2023-03-18T11:02:58;101102.97;;;37.05;6.56
46291;BME280;32023;44.444;26.006;2023-03-18T11:05:25;101096.28;;;36.53;7.05
46291;BME280;32023;44.444;26.006;2023-03-18T11:07:59;101096.00;;;36.37;6.95
46291;BME280;32023;44.444;26.006;2023-03-18T11:12:56;101097.19;;;37.01;7.01
46291;BME280;32023;44.444;26.006;2023-03-18T11:15:24;101088.94;;;37.55;6.76
46291;BME280;32023;44.444;26.006;2023-03-18T11:17:51;101089.84;;;37.45;6.70
46291;BME280;32023;44.444;26.006;2023-03-18T11:22:46;101083.06;;;37.69;6.32
46291;BME280;32023;44.444;26.006;2023-03-18T11:25:14;101073.75;;;37.95;6.23
46291;BME280;32023;44.444;26.006;2023-03-18T11:27:42;101069.63;;;37.93;6.46
46291;BME280;32023;44.444;26.006;2023-03-18T11:30:18;101082.97;;;38.14;6.56
46291;BME280;32023;44.444;26.006;2023-03-18T11:32:57;101065.34;;;38.38;6.09
46291;BME280;32023;44.444;26.006;2023-03-18T11:35:31;101066.78;;;38.53;6.23
46291;BME280;32023;44.444;26.006;2023-03-18T11:38:00;101077.44;;;38.57;6.19
46291;BME280;32023;44.444;26.006;2023-03-18T11:40:27;101068.97;;;37.41;6.49
46291;BME280;32023;44.444;26.006;2023-03-18T11:42:56;101063.75;;;37.29;6.33
46291;BME280;32023;44.444;26.006;2023-03-18T11:45:42;101070.06;;;37.09;6.55
46291;BME280;32023;44.444;26.006;2023-03-18T11:48:17;101058.38;;;36.86;6.70
46291;BME280;32023;44.444;26.006;2023-03-18T11:50:56;101060.06;;;36.00;6.84
46291;BME280;32023;44.444;26.006;2023-03-18T11:56:00;101055.75;;;35.21;7.53
46291;BME280;32023;44.444;26.006;2023-03-18T11:58:50;101047.16;;;35.21;7.49
46291;BME280;32023;44.444;26.006;2023-03-18T12:06:22;101046.31;;;33.06;9.12
46291;BME280;32023;44.444;26.006;2023-03-18T12:24:55;101055.72;;;23.35;16.82
46291;BME280;32023;44.444;26.006;2023-03-18T12:27:39;101053.91;;;21.76;18.67
46291;BME280;32023;44.444;26.006;2023-03-18T12:32:43;101054.38;;;21.20;19.37
46291;BME280;32023;44.444;26.006;2023-03-18T12:45:32;101045.38;;;20.09;22.81
46291;BME280;32023;44.444;26.006;2023-03-18T12:48:06;101052.00;;;19.62;23.25
46291;BME280;32023;44.444;26.006;2023-03-18T12:50:37;101056.44;;;19.26;23.87
46291;BME280;32023;44.444;26.006;2023-03-18T12:53:14;101050.97;;;19.15;24.10
46291;BME280;32023;44.444;26.006;2023-03-18T12:55:45;101054.59;;;18.73;25.10
46291;BME280;32023;44.444;26.006;2023-03-18T12:58:26;101057.75;;;18.38;25.57
46291;BME280;32023;44.444;26.006;2023-03-18T13:01:14;101040.16;;;18.14;25.92
46291;BME280;32023;44.444;26.006;2023-03-18T13:03:44;101065.03;;;17.27;26.82
46291;BME280;32023;44.444;26.006;2023-03-18T13:13:53;101062.03;;;15.79;29.34
46291;BME280;32023;44.444;26.006;2023-03-18T13:16:20;101060.03;;;15.39;30.19
46291;BME280;32023;44.444;26.006;2023-03-18T13:18:48;101048.41;;;14.60;31.32
46291;BME280;32023;44.444;26.006;2023-03-18T13:21:20;101051.59;;;13.99;32.64
46291;BME280;32023;44.444;26.006;2023-03-18T13:24:14;101059.41;;;13.44;33.52
46291;BME280;32023;44.444;26.006;2023-03-18T13:26:57;101051.81;;;12.86;34.56
46291;BME280;32023;44.444;26.006;2023-03-18T13:29:32;101044.38;;;12.65;34.61
46291;BME280;32023;44.444;26.006;2023-03-18T13:32:36;101048.69;;;12.55;34.57
46291;BME280;32023;44.444;26.006;2023-03-18T13:42:40;101042.38;;;12.82;34.22
46291;BME280;32023;44.444;26.006;2023-03-18T13:53:56;101047.91;;;12.60;34.95
46291;BME280;32023;44.444;26.006;2023-03-18T14:00:00;101049.81;;;12.38;34.35
46291;BME280;32023;44.444;26.006;2023-03-18T14:45:01;101059.38;;;11.47;38.39
46291;BME280;32023;44.444;26.006;2023-03-18T14:47:53;101065.06;;;11.40;38.18
46291;BME280;32023;44.444;26.006;2023-03-18T14:50:43;101062.41;;;11.17;38.72
46291;BME280;32023;44.444;26.006;2023-03-18T14:55:56;101066.00;;;11.18;38.54
46291;BME280;32023;44.444;26.006;2023-03-18T14:58:25;101069.50;;;11.13;38.71
46291;BME280;32023;44.444;26.006;2023-03-18T15:00:59;101066.44;;;10.98;38.42
46291;BME280;32023;44.444;26.006;2023-03-18T15:03:31;101062.72;;;10.92;39.03
46291;BME280;32023;44.444;26.006;2023-03-18T15:05:58;101064.69;;;10.80;38.87
46291;BME280;32023;44.444;26.006;2023-03-18T15:08:36;101061.41;;;10.55;39.64
46291;BME280;32023;44.444;26.006;2023-03-18T15:23:25;101078.66;;;10.50;39.23
46291;BME280;32023;44.444;26.006;2023-03-18T15:26:05;101083.44;;;10.55;39.63
46291;BME280;32023;44.444;26.006;2023-03-18T15:28:34;101079.13;;;10.47;40.08
46291;BME280;32023;44.444;26.006;2023-03-18T15:39:54;101087.41;;;10.47;39.92
46291;BME280;32023;44.444;26.006;2023-03-18T15:45:24;101082.38;;;10.44;40.18
46291;BME280;32023;44.444;26.006;2023-03-18T15:59:44;101098.31;;;10.19;40.41
46291;BME280;32023;44.444;26.006;2023-03-18T16:02:14;101093.41;;;10.21;40.48
46291;BME280;32023;44.444;26.006;2023-03-18T16:04:43;101091.72;;;10.20;40.84
46291;BME280;32023;44.444;26.006;2023-03-18T16:07:20;101100.22;;;10.19;40.64
46291;BME280;32023;44.444;26.006;2023-03-18T16:12:52;101111.34;;;10.12;41.36
46291;BME280;32023;44.444;26.006;2023-03-18T16:23:52;101112.16;;;10.12;41.77
46291;BME280;32023;44.444;26.006;2023-03-18T16:32:35;101114.91;;;10.12;41.94
46291;BME280;32023;44.444;26.006;2023-03-18T16:35:27;101123.41;;;10.11;42.38
46291;BME280;32023;44.444;26.006;2023-03-18T16:38:16;101128.78;;;10.06;42.36
46291;BME280;32023;44.444;26.006;2023-03-18T16:40:45;101125.44;;;10.04;42.90
46291;BME280;32023;44.444;26.006;2023-03-18T16:43:16;101129.75;;;10.00;43.17
46291;BME280;32023;44.444;26.006;2023-03-18T16:48:58;101130.81;;;9.99;43.36
46291;BME280;32023;44.444;26.006;2023-03-18T16:54:42;101128.53;;;9.96;43.25
46291;BME280;32023;44.444;26.006;2023-03-18T16:57:13;101138.06;;;9.93;43.19
46291;BME280;32023;44.444;26.006;2023-03-18T16:59:41;101139.25;;;9.86;43.30
46291;BME280;32023;44.444;26.006;2023-03-18T17:04:59;101142.59;;;9.76;43.83
46291;BME280;32023;44.444;26.006;2023-03-18T17:07:26;101142.09;;;9.67;44.52
46291;BME280;32023;44.444;26.006;2023-03-18T17:09:55;101154.63;;;9.63;44.54
46291;BME280;32023;44.444;26.006;2023-03-18T17:12:30;101149.50;;;9.55;45.26
46291;BME280;32023;44.444;26.006;2023-03-18T17:14:57;101152.41;;;9.42;46.33
46291;BME280;32023;44.444;26.006;2023-03-18T17:17:33;101151.19;;;9.38;45.92
46291;BME280;32023;44.444;26.006;2023-03-18T17:20:16;101159.44;;;9.38;46.47